sensor_id;sensor_type;location;lat;lon;timestamp;P1;durP1;ratioP1;P2;durP2;ratioP2
61025;SDS011;46911;32.650;-16.902;2023-08-24T00:00:38;37.85;;;4.22;;
61025;SDS011;46911;32.650;-16.902;2023-08-24T00:02:40;36.92;;;5.93;;
61025;SDS011;46911;32.650;-16.902;2023-08-24T00:04:41;39.42;;;5.47;;
61025;SDS011;46911;32.650;-16.902;2023-08-24T00:06:44;39.08;;;5.22;;
61025;SDS011;46911;32.650;-16.902;2023-08-24T00:08:47;41.88;;;4.97;;
61025;SDS011;46911;32.650;-16.902;2023-08-24T00:10:48;40.28;;;5.05;;
61025;SDS011;46911;32.650;-16.902;2023-08-24T00:12:52;46.03;;;5.13;;
61025;SDS011;46911;32.650;-16.902;2023-08-24T00:14:55;43.38;;;5.80;;
61025;SDS011;46911;32.650;-16.902;2023-08-24T00:17:00;33.30;;;5.88;;
61025;SDS011;46911;32.650;-16.902;2023-08-24T00:19:01;33.17;;;5.43;;
61025;SDS011;46911;32.650;-16.902;2023-08-24T00:21:05;39.75;;;6.63;;
61025;SDS011;46911;32.650;-16.902;2023-08-24T00:23:09;38.58;;;5.13;;
61025;SDS011;46911;32.650;-16.902;2023-08-24T00:25:09;29.67;;;6.20;;
61025;SDS011;46911;32.650;-16.902;2023-08-24T00:27:10;38.33;;;7.38;;
61025;SDS011;46911;32.650;-16.902;2023-08-24T00:29:18;49.88;;;6.55;;
61025;SDS011;46911;32.650;-16.902;2023-08-24T00:31:23;27.75;;;5.68;;
61025;SDS011;46911;32.650;-16.902;2023-08-24T00:33:26;31.90;;;5.70;;
61025;SDS011;46911;32.650;-16.902;2023-08-24T00:35:32;41.75;;;7.30;;
61025;SDS011;46911;32.650;-16.902;2023-08-24T00:37:35;53.08;;;7.47;;
61025;SDS011;46911;32.650;-16.902;2023-08-24T00:39:37;47.03;;;5.97;;
61025;SDS011;46911;32.650;-16.902;2023-08-24T00:41:40;40.55;;;5.72;;
61025;SDS011;46911;32.650;-16.902;2023-08-24T00:43:41;46.88;;;5.80;;
61025;SDS011;46911;32.650;-16.902;2023-08-24T00:45:42;38.13;;;6.55;;
61025;SDS011;46911;32.650;-16.902;2023-08-24T00:47:48;48.42;;;6.38;;
61025;SDS011;46911;32.650;-16.902;2023-08-24T00:49:52;35.20;;;5.82;;
61025;SDS011;46911;32.650;-16.902;2023-08-24T00:51:54;34.95;;;5.65;;
61025;SDS011;46911;32.650;-16.902;2023-08-24T00:53:55;46.67;;;5.80;;
61025;SDS011;46911;32.650;-16.902;2023-08-24T00:55:58;43.20;;;7.40;;
61025;SDS011;46911;32.650;-16.902;2023-08-24T00:58:04;38.72;;;6.53;;
61025;SDS011;46911;32.650;-16.902;2023-08-24T01:00:10;35.70;;;6.75;;
61025;SDS011;46911;32.650;-16.902;2023-08-24T01:02:11;49.05;;;5.90;;
61025;SDS011;46911;32.650;-16.902;2023-08-24T01:04:13;42.03;;;6.47;;
61025;SDS011;46911;32.650;-16.902;2023-08-24T01:06:14;47.80;;;6.15;;
61025;SDS011;46911;32.650;-16.902;2023-08-24T01:08:15;36.80;;;5.65;;
61025;SDS011;46911;32.650;-16.902;2023-08-24T01:10:16;49.85;;;5.90;;
61025;SDS011;46911;32.650;-16.902;2023-08-24T01:19:02;36.40;;;4.97;;
61025;SDS011;46911;32.650;-16.902;2023-08-24T01:21:07;33.63;;;5.03;;
61025;SDS011;46911;32.650;-16.902;2023-08-24T01:26:06;30.02;;;5.15;;
61025;SDS011;46911;32.650;-16.902;2023-08-24T01:28:08;25.42;;;3.45;;
61025;SDS011;46911;32.650;-16.902;2023-08-24T01:30:11;25.00;;;3.72;;
61025;SDS011;46911;32.650;-16.902;2023-08-24T01:32:12;24.02;;;3.38;;
61025;SDS011;46911;32.650;-16.902;2023-08-24T01:34:13;23.38;;;2.25;;
61025;SDS011;46911;32.650;-16.902;2023-08-24T01:36:20;13.15;;;1.73;;
61025;SDS011;46911;32.650;-16.902;2023-08-24T01:38:21;26.48;;;3.28;;
61025;SDS011;46911;32.650;-16.902;2023-08-24T01:40:31;19.15;;;2.40;;
61025;SDS011;46911;32.650;-16.902;2023-08-24T01:42:58;12.88;;;1.77;;
61025;SDS011;46911;32.650;-16.902;2023-08-24T01:45:04;15.48;;;1.88;;
61025;SDS011;46911;32.650;-16.902;2023-08-24T01:47:11;14.27;;;1.90;;
61025;SDS011;46911;32.650;-16.902;2023-08-24T01:49:13;15.32;;;1.83;;
61025;SDS011;46911;32.650;-16.902;2023-08-24T01:51:16;17.75;;;2.03;;
61025;SDS011;46911;32.650;-16.902;2023-08-24T01:53:20;21.23;;;2.20;;
61025;SDS011;46911;32.650;-16.902;2023-08-24T01:55:21;16.75;;;2.13;;
61025;SDS011;46911;32.650;-16.902;2023-08-24T01:57:23;14.88;;;2.33;;
61025;SDS011;46911;32.650;-16.902;2023-08-24T01:59:26;16.58;;;1.83;;
61025;SDS011;46911;32.650;-16.902;2023-08-24T02:01:30;15.40;;;1.83;;
61025;SDS011;46911;32.650;-16.902;2023-08-24T02:03:33;25.85;;;3.42;;
61025;SDS011;46911;32.650;-16.902;2023-08-24T02:05:36;24.60;;;4.25;;
61025;SDS011;46911;32.650;-16.902;2023-08-24T02:07:38;33.50;;;5.40;;
61025;SDS011;46911;32.650;-16.902;2023-08-24T02:09:42;36.10;;;4.60;;
61025;SDS011;46911;32.650;-16.902;2023-08-24T02:11:48;40.47;;;5.70;;
61025;SDS011;46911;32.650;-16.902;2023-08-24T02:13:49;33.38;;;4.80;;
61025;SDS011;46911;32.650;-16.902;2023-08-24T02:15:50;31.05;;;5.35;;
61025;SDS011;46911;32.650;-16.902;2023-08-24T02:18:01;38.13;;;4.78;;
61025;SDS011;46911;32.650;-16.902;2023-08-24T02:20:08;40.63;;;5.50;;
61025;SDS011;46911;32.650;-16.902;2023-08-24T02:22:12;32.63;;;4.72;;
61025;SDS011;46911;32.650;-16.902;2023-08-24T02:24:15;30.73;;;4.45;;
61025;SDS011;46911;32.650;-16.902;2023-08-24T02:26:19;34.05;;;5.18;;
61025;SDS011;46911;32.650;-16.902;2023-08-24T02:28:23;36.90;;;4.47;;
61025;SDS011;46911;32.650;-16.902;2023-08-24T02:30:24;31.48;;;4.93;;
61025;SDS011;46911;32.650;-16.902;2023-08-24T02:32:28;24.52;;;4.35;;
61025;SDS011;46911;32.650;-16.902;2023-08-24T02:34:31;33.45;;;4.63;;
61025;SDS011;46911;32.650;-16.902;2023-08-24T02:36:32;26.13;;;4.47;;
61025;SDS011;46911;32.650;-16.902;2023-08-24T02:38:41;38.63;;;5.60;;
61025;SDS011;46911;32.650;-16.902;2023-08-24T02:40:42;33.33;;;4.32;;
61025;SDS011;46911;32.650;-16.902;2023-08-24T02:42:43;40.30;;;5.38;;
61025;SDS011;46911;32.650;-16.902;2023-08-24T02:44:44;41.08;;;4.82;;
61025;SDS011;46911;32.650;-16.902;2023-08-24T02:46:47;33.83;;;5.43;;
61025;SDS011;46911;32.650;-16.902;2023-08-24T02:48:51;42.10;;;5.90;;
61025;SDS011;46911;32.650;-16.902;2023-08-24T02:50:52;39.17;;;5.38;;
61025;SDS011;46911;32.650;-16.902;2023-08-24T02:52:53;30.70;;;5.47;;
61025;SDS011;46911;32.650;-16.902;2023-08-24T02:54:59;27.45;;;4.85;;
61025;SDS011;46911;32.650;-16.902;2023-08-24T02:57:03;33.65;;;5.57;;
61025;SDS011;46911;32.650;-16.902;2023-08-24T02:59:06;30.13;;;4.30;;
61025;SDS011;46911;32.650;-16.902;2023-08-24T03:01:07;26.27;;;5.28;;
61025;SDS011;46911;32.650;-16.902;2023-08-24T03:03:15;35.67;;;5.68;;
61025;SDS011;46911;32.650;-16.902;2023-08-24T03:05:18;35.20;;;5.35;;
61025;SDS011;46911;32.650;-16.902;2023-08-24T03:07:21;32.38;;;5.28;;
61025;SDS011;46911;32.650;-16.902;2023-08-24T03:09:25;41.35;;;6.32;;
61025;SDS011;46911;32.650;-16.902;2023-08-24T03:11:28;38.40;;;5.97;;
61025;SDS011;46911;32.650;-16.902;2023-08-24T03:13:29;37.90;;;5.45;;
61025;SDS011;46911;32.650;-16.902;2023-08-24T03:15:31;21.48;;;4.45;;
61025;SDS011;46911;32.650;-16.902;2023-08-24T03:17:35;36.20;;;4.43;;
61025;SDS011;46911;32.650;-16.902;2023-08-24T03:19:37;30.90;;;5.30;;
61025;SDS011;46911;32.650;-16.902;2023-08-24T03:21:40;32.15;;;4.85;;
61025;SDS011;46911;32.650;-16.902;2023-08-24T03:23:44;32.55;;;4.50;;
61025;SDS011;46911;32.650;-16.902;2023-08-24T03:25:45;38.60;;;5.50;;
61025;SDS011;46911;32.650;-16.902;2023-08-24T03:27:54;40.00;;;5.75;;
61025;SDS011;46911;32.650;-16.902;2023-08-24T03:29:57;36.70;;;5.53;;
61025;SDS011;46911;32.650;-16.902;2023-08-24T03:31:59;32.58;;;5.32;;
61025;SDS011;46911;32.650;-16.902;2023-08-24T03:34:02;38.53;;;6.35;;
61025;SDS011;46911;32.650;-16.902;2023-08-24T03:36:04;41.83;;;6.78;;
61025;SDS011;46911;32.650;-16.902;2023-08-24T03:38:05;36.30;;;5.45;;
61025;SDS011;46911;32.650;-16.902;2023-08-24T03:40:06;31.45;;;4.82;;
61025;SDS011;46911;32.650;-16.902;2023-08-24T03:42:07;38.70;;;6.72;;
61025;SDS011;46911;32.650;-16.902;2023-08-24T03:44:08;40.75;;;5.45;;
61025;SDS011;46911;32.650;-16.902;2023-08-24T03:46:12;50.67;;;5.75;;
61025;SDS011;46911;32.650;-16.902;2023-08-24T03:48:17;39.08;;;7.20;;
61025;SDS011;46911;32.650;-16.902;2023-08-24T03:50:21;37.55;;;5.88;;
61025;SDS011;46911;32.650;-16.902;2023-08-24T03:52:30;42.97;;;6.13;;
61025;SDS011;46911;32.650;-16.902;2023-08-24T03:54:32;41.20;;;6.85;;
61025;SDS011;46911;32.650;-16.902;2023-08-24T03:56:33;33.97;;;5.68;;
61025;SDS011;46911;32.650;-16.902;2023-08-24T03:58:34;33.85;;;4.80;;
61025;SDS011;46911;32.650;-16.902;2023-08-24T04:00:35;31.85;;;4.85;;
61025;SDS011;46911;32.650;-16.902;2023-08-24T04:02:42;38.65;;;5.95;;
61025;SDS011;46911;32.650;-16.902;2023-08-24T04:04:56;35.10;;;6.53;;
61025;SDS011;46911;32.650;-16.902;2023-08-24T04:06:59;28.50;;;5.43;;
61025;SDS011;46911;32.650;-16.902;2023-08-24T04:09:03;39.15;;;5.40;;
61025;SDS011;46911;32.650;-16.902;2023-08-24T04:11:08;32.55;;;5.57;;
61025;SDS011;46911;32.650;-16.902;2023-08-24T04:13:11;46.58;;;5.72;;
61025;SDS011;46911;32.650;-16.902;2023-08-24T04:15:12;37.90;;;6.25;;
61025;SDS011;46911;32.650;-16.902;2023-08-24T04:17:13;34.25;;;5.38;;
61025;SDS011;46911;32.650;-16.902;2023-08-24T04:19:16;56.78;;;6.00;;
61025;SDS011;46911;32.650;-16.902;2023-08-24T04:21:20;49.75;;;5.65;;
61025;SDS011;46911;32.650;-16.902;2023-08-24T04:23:24;31.73;;;5.28;;
61025;SDS011;46911;32.650;-16.902;2023-08-24T04:25:29;51.58;;;6.03;;
61025;SDS011;46911;32.650;-16.902;2023-08-24T04:27:30;39.15;;;7.85;;
61025;SDS011;46911;32.650;-16.902;2023-08-24T04:29:31;36.17;;;5.75;;
61025;SDS011;46911;32.650;-16.902;2023-08-24T04:31:38;36.60;;;5.72;;
61025;SDS011;46911;32.650;-16.902;2023-08-24T04:33:41;38.50;;;5.43;;
61025;SDS011;46911;32.650;-16.902;2023-08-24T04:35:47;46.05;;;6.45;;
61025;SDS011;46911;32.650;-16.902;2023-08-24T04:37:49;43.45;;;5.32;;
61025;SDS011;46911;32.650;-16.902;2023-08-24T04:39:50;41.97;;;5.03;;
61025;SDS011;46911;32.650;-16.902;2023-08-24T04:41:53;51.53;;;5.20;;
61025;SDS011;46911;32.650;-16.902;2023-08-24T04:43:54;41.00;;;6.05;;
61025;SDS011;46911;32.650;-16.902;2023-08-24T04:45:57;32.28;;;5.10;;
61025;SDS011;46911;32.650;-16.902;2023-08-24T04:47:58;46.58;;;7.20;;
61025;SDS011;46911;32.650;-16.902;2023-08-24T04:50:03;27.45;;;4.57;;
61025;SDS011;46911;32.650;-16.902;2023-08-24T04:52:06;37.50;;;5.65;;
61025;SDS011;46911;32.650;-16.902;2023-08-24T04:54:10;41.47;;;5.60;;
61025;SDS011;46911;32.650;-16.902;2023-08-24T04:56:11;38.45;;;7.28;;
61025;SDS011;46911;32.650;-16.902;2023-08-24T04:58:13;40.15;;;5.00;;
61025;SDS011;46911;32.650;-16.902;2023-08-24T05:00:19;44.33;;;6.05;;
61025;SDS011;46911;32.650;-16.902;2023-08-24T05:02:20;33.80;;;6.30;;
61025;SDS011;46911;32.650;-16.902;2023-08-24T05:04:23;45.95;;;5.68;;
61025;SDS011;46911;32.650;-16.902;2023-08-24T05:06:24;35.65;;;5.57;;
61025;SDS011;46911;32.650;-16.902;2023-08-24T05:08:25;33.40;;;5.28;;
61025;SDS011;46911;32.650;-16.902;2023-08-24T05:10:32;36.65;;;5.43;;
61025;SDS011;46911;32.650;-16.902;2023-08-24T05:12:34;47.03;;;6.55;;
61025;SDS011;46911;32.650;-16.902;2023-08-24T05:14:39;41.92;;;5.28;;
61025;SDS011;46911;32.650;-16.902;2023-08-24T05:16:45;44.55;;;5.90;;
61025;SDS011;46911;32.650;-16.902;2023-08-24T05:18:46;39.85;;;6.90;;
61025;SDS011;46911;32.650;-16.902;2023-08-24T05:20:49;45.50;;;7.32;;
61025;SDS011;46911;32.650;-16.902;2023-08-24T05:22:53;50.85;;;6.53;;
61025;SDS011;46911;32.650;-16.902;2023-08-24T05:24:58;49.03;;;5.50;;
61025;SDS011;46911;32.650;-16.902;2023-08-24T05:27:01;46.92;;;6.18;;
61025;SDS011;46911;32.650;-16.902;2023-08-24T05:29:06;36.15;;;4.90;;
61025;SDS011;46911;32.650;-16.902;2023-08-24T05:31:10;41.45;;;5.80;;
61025;SDS011;46911;32.650;-16.902;2023-08-24T05:33:10;38.50;;;4.78;;
61025;SDS011;46911;32.650;-16.902;2023-08-24T05:35:11;40.88;;;5.35;;
61025;SDS011;46911;32.650;-16.902;2023-08-24T05:37:15;45.75;;;6.82;;
61025;SDS011;46911;32.650;-16.902;2023-08-24T05:39:18;29.20;;;5.30;;
61025;SDS011;46911;32.650;-16.902;2023-08-24T05:41:22;42.05;;;5.95;;
61025;SDS011;46911;32.650;-16.902;2023-08-24T05:43:23;39.92;;;5.82;;
61025;SDS011;46911;32.650;-16.902;2023-08-24T05:45:28;40.53;;;5.60;;
61025;SDS011;46911;32.650;-16.902;2023-08-24T05:47:29;37.50;;;5.65;;
61025;SDS011;46911;32.650;-16.902;2023-08-24T05:49:30;33.50;;;5.57;;
61025;SDS011;46911;32.650;-16.902;2023-08-24T05:51:31;36.88;;;7.20;;
61025;SDS011;46911;32.650;-16.902;2023-08-24T05:53:32;45.53;;;6.53;;
61025;SDS011;46911;32.650;-16.902;2023-08-24T05:55:35;37.97;;;5.95;;
61025;SDS011;46911;32.650;-16.902;2023-08-24T05:57:39;40.92;;;7.32;;
61025;SDS011;46911;32.650;-16.902;2023-08-24T05:59:42;29.08;;;5.07;;
61025;SDS011;46911;32.650;-16.902;2023-08-24T06:01:43;38.40;;;5.15;;
61025;SDS011;46911;32.650;-16.902;2023-08-24T06:03:44;24.70;;;4.70;;
61025;SDS011;46911;32.650;-16.902;2023-08-24T06:05:44;43.72;;;4.93;;
61025;SDS011;46911;32.650;-16.902;2023-08-24T06:07:45;46.63;;;7.10;;
61025;SDS011;46911;32.650;-16.902;2023-08-24T06:09:46;44.28;;;6.63;;
61025;SDS011;46911;32.650;-16.902;2023-08-24T06:11:47;40.78;;;5.22;;
61025;SDS011;46911;32.650;-16.902;2023-08-24T06:13:50;41.30;;;5.53;;
61025;SDS011;46911;32.650;-16.902;2023-08-24T06:15:59;39.72;;;6.80;;
61025;SDS011;46911;32.650;-16.902;2023-08-24T06:18:02;65.28;;;6.88;;
61025;SDS011;46911;32.650;-16.902;2023-08-24T06:20:03;46.97;;;7.28;;
61025;SDS011;46911;32.650;-16.902;2023-08-24T06:22:06;38.20;;;6.38;;
61025;SDS011;46911;32.650;-16.902;2023-08-24T06:24:10;27.00;;;5.43;;
61025;SDS011;46911;32.650;-16.902;2023-08-24T06:26:11;45.00;;;7.10;;
61025;SDS011;46911;32.650;-16.902;2023-08-24T06:28:12;48.88;;;6.65;;
61025;SDS011;46911;32.650;-16.902;2023-08-24T06:30:14;41.17;;;7.32;;
61025;SDS011;46911;32.650;-16.902;2023-08-24T06:32:14;55.47;;;5.55;;
61025;SDS011;46911;32.650;-16.902;2023-08-24T06:34:20;40.60;;;6.50;;
61025;SDS011;46911;32.650;-16.902;2023-08-24T06:36:24;54.22;;;7.35;;
61025;SDS011;46911;32.650;-16.902;2023-08-24T06:38:25;40.42;;;6.53;;
61025;SDS011;46911;32.650;-16.902;2023-08-24T06:40:29;51.30;;;7.00;;
61025;SDS011;46911;32.650;-16.902;2023-08-24T06:42:30;45.33;;;5.53;;
61025;SDS011;46911;32.650;-16.902;2023-08-24T06:44:31;36.08;;;5.70;;
61025;SDS011;46911;32.650;-16.902;2023-08-24T06:46:32;33.67;;;5.97;;
61025;SDS011;46911;32.650;-16.902;2023-08-24T06:48:36;30.88;;;5.93;;
61025;SDS011;46911;32.650;-16.902;2023-08-24T06:50:42;43.30;;;6.78;;
61025;SDS011;46911;32.650;-16.902;2023-08-24T06:52:45;62.03;;;8.05;;
61025;SDS011;46911;32.650;-16.902;2023-08-24T06:54:49;45.53;;;6.90;;
61025;SDS011;46911;32.650;-16.902;2023-08-24T06:56:53;53.60;;;7.45;;
61025;SDS011;46911;32.650;-16.902;2023-08-24T06:58:54;49.25;;;6.57;;
61025;SDS011;46911;32.650;-16.902;2023-08-24T07:00:55;41.53;;;7.22;;
61025;SDS011;46911;32.650;-16.902;2023-08-24T07:02:57;66.53;;;6.38;;
61025;SDS011;46911;32.650;-16.902;2023-08-24T07:04:58;46.30;;;7.00;;
61025;SDS011;46911;32.650;-16.902;2023-08-24T07:07:02;42.88;;;7.00;;
61025;SDS011;46911;32.650;-16.902;2023-08-24T07:09:03;33.78;;;6.40;;
61025;SDS011;46911;32.650;-16.902;2023-08-24T07:11:06;50.53;;;8.02;;
61025;SDS011;46911;32.650;-16.902;2023-08-24T07:13:07;44.88;;;6.35;;
61025;SDS011;46911;32.650;-16.902;2023-08-24T07:15:09;49.85;;;6.80;;
61025;SDS011;46911;32.650;-16.902;2023-08-24T07:17:11;41.65;;;6.22;;
61025;SDS011;46911;32.650;-16.902;2023-08-24T07:19:11;37.33;;;5.32;;
61025;SDS011;46911;32.650;-16.902;2023-08-24T07:21:15;44.72;;;6.03;;
61025;SDS011;46911;32.650;-16.902;2023-08-24T07:23:17;53.90;;;6.93;;
61025;SDS011;46911;32.650;-16.902;2023-08-24T07:25:21;27.15;;;5.18;;
61025;SDS011;46911;32.650;-16.902;2023-08-24T07:27:22;37.35;;;6.85;;
61025;SDS011;46911;32.650;-16.902;2023-08-24T07:29:23;44.38;;;6.47;;
61025;SDS011;46911;32.650;-16.902;2023-08-24T07:31:26;40.72;;;6.60;;
61025;SDS011;46911;32.650;-16.902;2023-08-24T07:33:27;39.15;;;6.75;;
61025;SDS011;46911;32.650;-16.902;2023-08-24T07:35:31;40.30;;;6.32;;
61025;SDS011;46911;32.650;-16.902;2023-08-24T07:37:32;37.40;;;6.65;;
61025;SDS011;46911;32.650;-16.902;2023-08-24T07:39:33;49.38;;;6.68;;
61025;SDS011;46911;32.650;-16.902;2023-08-24T07:41:34;41.22;;;6.55;;
61025;SDS011;46911;32.650;-16.902;2023-08-24T07:43:37;53.10;;;5.60;;
61025;SDS011;46911;32.650;-16.902;2023-08-24T07:45:41;42.35;;;6.28;;
61025;SDS011;46911;32.650;-16.902;2023-08-24T07:47:44;44.35;;;7.20;;
61025;SDS011;46911;32.650;-16.902;2023-08-24T07:49:48;37.42;;;4.90;;
61025;SDS011;46911;32.650;-16.902;2023-08-24T07:51:49;29.98;;;5.05;;
61025;SDS011;46911;32.650;-16.902;2023-08-24T07:53:50;39.80;;;5.28;;
61025;SDS011;46911;32.650;-16.902;2023-08-24T07:55:53;41.60;;;6.72;;
61025;SDS011;46911;32.650;-16.902;2023-08-24T07:57:58;41.53;;;5.72;;
61025;SDS011;46911;32.650;-16.902;2023-08-24T07:59:59;39.35;;;6.40;;
61025;SDS011;46911;32.650;-16.902;2023-08-24T08:02:03;36.90;;;5.68;;
61025;SDS011;46911;32.650;-16.902;2023-08-24T08:04:04;46.90;;;6.25;;
61025;SDS011;46911;32.650;-16.902;2023-08-24T08:06:07;53.20;;;6.53;;
61025;SDS011;46911;32.650;-16.902;2023-08-24T08:08:10;31.27;;;5.80;;
61025;SDS011;46911;32.650;-16.902;2023-08-24T08:10:14;39.00;;;4.93;;
61025;SDS011;46911;32.650;-16.902;2023-08-24T08:12:17;26.63;;;6.15;;
61025;SDS011;46911;32.650;-16.902;2023-08-24T08:14:21;37.63;;;6.20;;
61025;SDS011;46911;32.650;-16.902;2023-08-24T08:16:24;31.75;;;4.68;;
61025;SDS011;46911;32.650;-16.902;2023-08-24T08:18:29;34.30;;;4.30;;
61025;SDS011;46911;32.650;-16.902;2023-08-24T08:20:34;27.83;;;4.15;;
61025;SDS011;46911;32.650;-16.902;2023-08-24T08:22:42;32.85;;;4.20;;
61025;SDS011;46911;32.650;-16.902;2023-08-24T08:24:43;32.40;;;3.80;;
61025;SDS011;46911;32.650;-16.902;2023-08-24T08:26:44;23.60;;;3.67;;
61025;SDS011;46911;32.650;-16.902;2023-08-24T08:28:50;27.17;;;3.47;;
61025;SDS011;46911;32.650;-16.902;2023-08-24T08:30:54;19.42;;;3.90;;
61025;SDS011;46911;32.650;-16.902;2023-08-24T08:32:57;17.13;;;2.83;;
61025;SDS011;46911;32.650;-16.902;2023-08-24T08:35:00;33.38;;;3.63;;
61025;SDS011;46911;32.650;-16.902;2023-08-24T08:37:02;15.23;;;2.78;;
61025;SDS011;46911;32.650;-16.902;2023-08-24T08:39:05;29.92;;;3.60;;
61025;SDS011;46911;32.650;-16.902;2023-08-24T08:41:08;27.02;;;4.15;;
61025;SDS011;46911;32.650;-16.902;2023-08-24T08:43:12;19.73;;;3.63;;
61025;SDS011;46911;32.650;-16.902;2023-08-24T08:45:13;19.15;;;3.42;;
61025;SDS011;46911;32.650;-16.902;2023-08-24T08:47:14;37.65;;;3.90;;
61025;SDS011;46911;32.650;-16.902;2023-08-24T08:49:17;28.60;;;3.15;;
61025;SDS011;46911;32.650;-16.902;2023-08-24T08:51:20;17.83;;;3.28;;
61025;SDS011;46911;32.650;-16.902;2023-08-24T08:53:23;29.08;;;3.63;;
61025;SDS011;46911;32.650;-16.902;2023-08-24T08:55:27;28.38;;;3.95;;
61025;SDS011;46911;32.650;-16.902;2023-08-24T08:57:31;23.00;;;3.58;;
61025;SDS011;46911;32.650;-16.902;2023-08-24T08:59:36;19.23;;;4.40;;
61025;SDS011;46911;32.650;-16.902;2023-08-24T09:01:37;34.35;;;4.68;;
61025;SDS011;46911;32.650;-16.902;2023-08-24T09:03:41;24.83;;;4.30;;
61025;SDS011;46911;32.650;-16.902;2023-08-24T09:05:46;26.13;;;4.22;;
61025;SDS011;46911;32.650;-16.902;2023-08-24T09:07:52;29.77;;;4.30;;
61025;SDS011;46911;32.650;-16.902;2023-08-24T09:09:58;22.98;;;3.95;;
61025;SDS011;46911;32.650;-16.902;2023-08-24T09:11:59;24.08;;;3.70;;
61025;SDS011;46911;32.650;-16.902;2023-08-24T09:14:01;22.92;;;3.90;;
61025;SDS011;46911;32.650;-16.902;2023-08-24T09:16:05;34.50;;;4.88;;
61025;SDS011;46911;32.650;-16.902;2023-08-24T09:18:09;33.42;;;3.80;;
61025;SDS011;46911;32.650;-16.902;2023-08-24T09:20:10;24.92;;;4.38;;
61025;SDS011;46911;32.650;-16.902;2023-08-24T09:22:18;30.77;;;3.67;;
61025;SDS011;46911;32.650;-16.902;2023-08-24T09:24:19;19.70;;;3.53;;
61025;SDS011;46911;32.650;-16.902;2023-08-24T09:26:30;23.02;;;3.95;;
61025;SDS011;46911;32.650;-16.902;2023-08-24T09:28:33;28.17;;;4.18;;
61025;SDS011;46911;32.650;-16.902;2023-08-24T09:30:41;25.40;;;3.58;;
61025;SDS011;46911;32.650;-16.902;2023-08-24T09:32:45;25.30;;;4.28;;
61025;SDS011;46911;32.650;-16.902;2023-08-24T09:34:46;28.73;;;4.78;;
61025;SDS011;46911;32.650;-16.902;2023-08-24T09:36:50;31.10;;;3.90;;
61025;SDS011;46911;32.650;-16.902;2023-08-24T09:38:54;32.35;;;6.43;;
61025;SDS011;46911;32.650;-16.902;2023-08-24T09:41:01;22.95;;;4.00;;
61025;SDS011;46911;32.650;-16.902;2023-08-24T09:43:05;21.35;;;3.40;;
61025;SDS011;46911;32.650;-16.902;2023-08-24T09:45:13;18.42;;;3.03;;
61025;SDS011;46911;32.650;-16.902;2023-08-24T09:47:15;26.13;;;3.17;;
61025;SDS011;46911;32.650;-16.902;2023-08-24T09:49:18;21.38;;;4.15;;
61025;SDS011;46911;32.650;-16.902;2023-08-24T09:51:22;18.55;;;3.03;;
61025;SDS011;46911;32.650;-16.902;2023-08-24T09:53:23;22.75;;;3.88;;
61025;SDS011;46911;32.650;-16.902;2023-08-24T09:55:25;22.08;;;3.67;;
61025;SDS011;46911;32.650;-16.902;2023-08-24T09:57:38;17.80;;;3.28;;
61025;SDS011;46911;32.650;-16.902;2023-08-24T09:59:42;31.05;;;4.32;;
61025;SDS011;46911;32.650;-16.902;2023-08-24T10:01:47;22.27;;;3.38;;
61025;SDS011;46911;32.650;-16.902;2023-08-24T10:03:50;15.80;;;3.45;;
61025;SDS011;46911;32.650;-16.902;2023-08-24T10:05:57;19.42;;;2.83;;
61025;SDS011;46911;32.650;-16.902;2023-08-24T10:08:01;19.20;;;2.80;;
61025;SDS011;46911;32.650;-16.902;2023-08-24T10:10:03;29.02;;;3.80;;
61025;SDS011;46911;32.650;-16.902;2023-08-24T10:14:21;15.63;;;3.20;;
61025;SDS011;46911;32.650;-16.902;2023-08-24T10:16:29;16.33;;;2.80;;
61025;SDS011;46911;32.650;-16.902;2023-08-24T10:18:30;18.75;;;2.88;;
61025;SDS011;46911;32.650;-16.902;2023-08-24T10:20:31;22.75;;;2.88;;
61025;SDS011;46911;32.650;-16.902;2023-08-24T10:22:34;19.42;;;2.95;;
61025;SDS011;46911;32.650;-16.902;2023-08-24T10:24:38;19.63;;;2.95;;
61025;SDS011;46911;32.650;-16.902;2023-08-24T10:26:42;23.92;;;3.10;;
61025;SDS011;46911;32.650;-16.902;2023-08-24T10:28:44;20.42;;;2.90;;
61025;SDS011;46911;32.650;-16.902;2023-08-24T10:30:46;19.17;;;3.20;;
61025;SDS011;46911;32.650;-16.902;2023-08-24T10:32:53;28.13;;;3.97;;
61025;SDS011;46911;32.650;-16.902;2023-08-24T10:34:59;24.73;;;6.35;;
61025;SDS011;46911;32.650;-16.902;2023-08-24T10:37:07;21.50;;;3.05;;
61025;SDS011;46911;32.650;-16.902;2023-08-24T10:39:12;18.45;;;2.90;;
61025;SDS011;46911;32.650;-16.902;2023-08-24T10:41:16;24.85;;;3.35;;
61025;SDS011;46911;32.650;-16.902;2023-08-24T10:43:20;14.57;;;3.28;;
61025;SDS011;46911;32.650;-16.902;2023-08-24T10:45:22;23.77;;;3.17;;
61025;SDS011;46911;32.650;-16.902;2023-08-24T10:47:24;18.55;;;3.22;;
61025;SDS011;46911;32.650;-16.902;2023-08-24T10:49:29;20.20;;;4.50;;
61025;SDS011;46911;32.650;-16.902;2023-08-24T10:51:30;22.63;;;3.03;;
61025;SDS011;46911;32.650;-16.902;2023-08-24T10:53:37;19.75;;;3.80;;
61025;SDS011;46911;32.650;-16.902;2023-08-24T10:55:39;17.65;;;3.38;;
61025;SDS011;46911;32.650;-16.902;2023-08-24T10:57:40;17.05;;;3.10;;
61025;SDS011;46911;32.650;-16.902;2023-08-24T10:59:57;26.48;;;3.03;;
61025;SDS011;46911;32.650;-16.902;2023-08-24T11:02:10;18.38;;;3.13;;
61025;SDS011;46911;32.650;-16.902;2023-08-24T11:04:20;20.15;;;3.08;;
61025;SDS011;46911;32.650;-16.902;2023-08-24T11:06:21;24.17;;;3.20;;
61025;SDS011;46911;32.650;-16.902;2023-08-24T11:13:23;23.55;;;3.20;;
61025;SDS011;46911;32.650;-16.902;2023-08-24T11:15:34;19.15;;;2.85;;
61025;SDS011;46911;32.650;-16.902;2023-08-24T11:17:38;16.35;;;2.78;;
61025;SDS011;46911;32.650;-16.902;2023-08-24T11:19:54;15.73;;;2.53;;
61025;SDS011;46911;32.650;-16.902;2023-08-24T11:21:55;12.63;;;2.38;;
61025;SDS011;46911;32.650;-16.902;2023-08-24T11:23:59;13.20;;;2.38;;
61025;SDS011;46911;32.650;-16.902;2023-08-24T11:26:00;14.50;;;2.88;;
61025;SDS011;46911;32.650;-16.902;2023-08-24T11:28:02;20.83;;;3.00;;
61025;SDS011;46911;32.650;-16.902;2023-08-24T11:30:05;12.45;;;2.40;;
61025;SDS011;46911;32.650;-16.902;2023-08-24T11:32:09;19.25;;;3.85;;
61025;SDS011;46911;32.650;-16.902;2023-08-24T11:34:14;17.80;;;2.60;;
61025;SDS011;46911;32.650;-16.902;2023-08-24T11:36:18;11.80;;;2.15;;
61025;SDS011;46911;32.650;-16.902;2023-08-24T11:38:19;17.15;;;3.08;;
61025;SDS011;46911;32.650;-16.902;2023-08-24T11:40:22;12.85;;;2.30;;
61025;SDS011;46911;32.650;-16.902;2023-08-24T11:42:35;17.88;;;3.03;;
61025;SDS011;46911;32.650;-16.902;2023-08-24T11:44:49;13.32;;;2.70;;
61025;SDS011;46911;32.650;-16.902;2023-08-24T11:46:52;18.17;;;2.90;;
61025;SDS011;46911;32.650;-16.902;2023-08-24T11:48:56;12.85;;;2.05;;
61025;SDS011;46911;32.650;-16.902;2023-08-24T11:50:58;11.35;;;2.05;;
61025;SDS011;46911;32.650;-16.902;2023-08-24T11:53:02;14.15;;;2.22;;
61025;SDS011;46911;32.650;-16.902;2023-08-24T11:55:08;15.70;;;1.92;;
61025;SDS011;46911;32.650;-16.902;2023-08-24T11:57:10;13.82;;;2.05;;
61025;SDS011;46911;32.650;-16.902;2023-08-24T11:59:15;12.20;;;2.10;;
61025;SDS011;46911;32.650;-16.902;2023-08-24T12:01:20;23.25;;;2.70;;
61025;SDS011;46911;32.650;-16.902;2023-08-24T12:03:27;16.88;;;2.42;;
61025;SDS011;46911;32.650;-16.902;2023-08-24T12:05:29;14.35;;;2.42;;
61025;SDS011;46911;32.650;-16.902;2023-08-24T12:07:30;14.68;;;2.58;;